createdAt,value
2023-03-21T00:00:34.211Z,111.70
2023-03-21T00:03:01.788Z,115.72
2023-03-21T00:05:30.746Z,110.15
2023-03-21T00:07:59.557Z,108.18
2023-03-21T00:10:39.840Z,100.40
2023-03-21T00:13:14.536Z,111.00
2023-03-21T00:16:06.740Z,113.40
2023-03-21T00:18:42.074Z,101.50
2023-03-21T00:21:38.380Z,109.80
2023-03-21T00:23:59.521Z,112.47
2023-03-21T00:26:27.562Z,91.97
2023-03-21T00:28:57.716Z,94.63
2023-03-21T00:31:26.543Z,92.68
2023-03-21T00:33:54.145Z,93.60
2023-03-21T00:36:21.725Z,107.35
2023-03-21T00:38:49.292Z,107.47
2023-03-21T00:41:26.239Z,99.40
2023-03-21T00:44:04.135Z,91.43
2023-03-21T00:46:43.982Z,97.57
2023-03-21T00:49:14.659Z,102.53
2023-03-21T00:51:43.750Z,108.43
2023-03-21T00:54:12.495Z,102.57
2023-03-21T00:56:42.801Z,87.43
2023-03-21T00:59:10.421Z,82.57
2023-03-21T01:01:39.265Z,97.25
2023-03-21T01:04:11.057Z,86.38
2023-03-21T01:06:44.359Z,100.63
2023-03-21T01:09:15.074Z,113.27
2023-03-21T01:11:42.885Z,123.57
2023-03-21T01:14:21.922Z,118.72
2023-03-21T01:16:52.391Z,128.32
2023-03-21T01:19:40.737Z,101.97
2023-03-21T01:22:08.725Z,105.70
2023-03-21T01:24:40.594Z,110.03
2023-03-21T01:27:14.260Z,115.88
2023-03-21T01:29:41.726Z,122.53
2023-03-21T01:32:10.972Z,109.45
2023-03-21T01:34:38.564Z,106.63
2023-03-21T01:37:06.320Z,121.13
2023-03-21T01:39:34.934Z,126.43
2023-03-21T01:42:02.725Z,135.88
2023-03-21T01:44:30.808Z,107.32
2023-03-21T01:47:10.385Z,124.60
2023-03-21T01:49:46.918Z,109.63
2023-03-21T01:52:29.727Z,117.60
2023-03-21T01:55:04.654Z,121.50
2023-03-21T01:57:43.570Z,123.82
2023-03-21T02:00:15.361Z,125.78
2023-03-21T02:02:58.248Z,122.38
2023-03-21T02:05:33.680Z,113.45
2023-03-21T02:08:01.385Z,102.47
2023-03-21T02:10:29.292Z,93.07
2023-03-21T02:12:57.618Z,101.25
2023-03-21T02:15:26.569Z,83.75
2023-03-21T02:17:55.652Z,83.53
2023-03-21T02:20:37.963Z,83.43
2023-03-21T02:23:25.729Z,83.72
2023-03-21T02:26:01.824Z,83.32
2023-03-21T02:28:32.002Z,92.18
2023-03-21T02:31:15.798Z,89.28
2023-03-21T02:33:52.143Z,98.63
2023-03-21T02:36:28.760Z,96.15
2023-03-21T02:39:04.343Z,102.82
2023-03-21T02:41:40.229Z,103.70
2023-03-21T02:44:09.930Z,110.80
2023-03-21T02:46:47.057Z,118.25
2023-03-21T02:49:18.121Z,110.63
2023-03-21T02:51:47.404Z,120.32
2023-03-21T02:54:38.226Z,117.97
2023-03-21T02:57:07.089Z,122.28
2023-03-21T02:59:44.349Z,114.53
2023-03-21T03:02:16.603Z,105.95
2023-03-21T03:04:44.130Z,120.28
2023-03-21T03:07:20.622Z,106.88
2023-03-21T03:09:57.324Z,118.50
2023-03-21T03:12:29.035Z,113.63
2023-03-21T03:15:04.453Z,112.60
2023-03-21T03:17:39.751Z,120.53
2023-03-21T03:20:17.155Z,117.13
2023-03-21T03:22:49.251Z,109.57
2023-03-21T03:25:29.815Z,111.47
2023-03-21T03:28:08.636Z,102.90
2023-03-21T03:30:43.385Z,119.20
2023-03-21T03:33:17.281Z,122.00
2023-03-21T03:35:48.259Z,129.40
2023-03-21T03:38:21.741Z,143.73
2023-03-21T03:40:53.505Z,151.57
2023-03-21T03:43:24.371Z,142.23
2023-03-21T03:45:56.102Z,138.10
2023-03-21T03:48:25.639Z,121.88
2023-03-21T03:50:55.239Z,114.00
2023-03-21T03:53:24.442Z,125.63
2023-03-21T03:55:54.953Z,120.97
2023-03-21T03:58:24.773Z,127.45
2023-03-21T04:03:24.563Z,120.22
2023-03-21T04:05:52.156Z,133.75
2023-03-21T04:08:19.865Z,124.95
2023-03-21T04:10:47.415Z,129.63
2023-03-21T04:13:16.407Z,117.82
2023-03-21T04:15:45.138Z,129.45
2023-03-21T04:18:12.743Z,128.35
2023-03-21T04:20:40.586Z,126.85
2023-03-21T04:23:10.394Z,119.32
2023-03-21T04:25:47.530Z,125.13
2023-03-21T04:28:22.326Z,123.65
2023-03-21T04:31:01.195Z,124.97
2023-03-21T04:33:38.403Z,117.03
2023-03-21T04:36:06.748Z,111.03
2023-03-21T04:38:34.239Z,118.78
2023-03-21T04:41:02.176Z,126.25
2023-03-21T04:43:32.030Z,132.70
2023-03-21T04:45:59.685Z,115.47
2023-03-21T04:48:28.003Z,122.18
2023-03-21T04:50:55.649Z,123.50
2023-03-21T04:53:23.171Z,114.03
2023-03-21T04:55:54.901Z,113.60
2023-03-21T04:58:22.847Z,107.95
2023-03-21T05:00:53.133Z,102.38
2023-03-21T05:03:21.477Z,93.95
2023-03-21T05:05:49.066Z,105.75
2023-03-21T05:08:17.398Z,95.28
2023-03-21T05:10:44.917Z,103.90
2023-03-21T05:13:12.407Z,106.75
2023-03-21T05:15:40.272Z,98.50
2023-03-21T05:18:11.961Z,98.53
2023-03-21T05:20:42.704Z,106.43
2023-03-21T05:23:11.025Z,102.38
2023-03-21T05:25:39.567Z,99.53
2023-03-21T05:28:07.884Z,90.53
2023-03-21T05:30:35.541Z,99.22
2023-03-21T05:33:03.079Z,92.75
2023-03-21T05:35:32.422Z,80.35
2023-03-21T05:37:59.999Z,85.45
2023-03-21T05:40:27.527Z,81.03
2023-03-21T05:42:55.100Z,79.25
2023-03-21T05:45:24.557Z,87.93
2023-03-21T05:47:52.144Z,76.18
2023-03-21T05:50:19.743Z,69.68
2023-03-21T05:52:48.529Z,74.53
2023-03-21T05:55:16.135Z,76.63
2023-03-21T05:57:43.681Z,73.57
2023-03-21T06:00:12.133Z,80.03
2023-03-21T06:02:39.981Z,67.43
2023-03-21T06:05:08.094Z,66.93
2023-03-21T06:07:37.041Z,79.78
2023-03-21T06:10:06.554Z,65.45
2023-03-21T06:12:34.621Z,69.13
2023-03-21T06:15:02.261Z,66.95
2023-03-21T06:17:30.381Z,65.60
2023-03-21T06:19:58.464Z,72.15
2023-03-21T06:22:26.129Z,67.15
2023-03-21T06:24:53.857Z,66.70
2023-03-21T06:27:22.879Z,69.18
2023-03-21T06:29:50.452Z,66.95
2023-03-21T06:32:17.982Z,78.05
2023-03-21T06:34:45.788Z,76.72
2023-03-21T06:37:13.339Z,87.43
2023-03-21T06:39:41.028Z,71.45
2023-03-21T06:42:08.643Z,68.20
2023-03-21T06:44:37.518Z,83.00
2023-03-21T06:47:05.081Z,69.85
2023-03-21T06:49:37.689Z,72.43
2023-03-21T06:52:05.362Z,63.38
2023-03-21T06:54:32.901Z,76.63
2023-03-21T06:57:00.630Z,62.70
2023-03-21T06:59:28.215Z,64.28
2023-03-21T07:01:57.202Z,66.47
2023-03-21T07:04:28.571Z,64.40
2023-03-21T07:06:56.106Z,69.35
2023-03-21T07:09:28.105Z,58.60
2023-03-21T07:11:55.811Z,61.75
2023-03-21T07:14:24.058Z,64.32
2023-03-21T07:16:51.663Z,60.92
2023-03-21T07:22:12.468Z,63.72
2023-03-21T07:24:40.254Z,61.67
2023-03-21T07:27:07.933Z,65.07
2023-03-21T07:29:35.629Z,62.70
2023-03-21T07:32:03.250Z,57.00
2023-03-21T07:34:33.870Z,60.75
2023-03-21T07:37:01.474Z,66.35
2023-03-21T07:39:29.584Z,57.20
2023-03-21T07:41:57.272Z,62.03
2023-03-21T07:44:24.921Z,61.38
2023-03-21T07:46:52.470Z,60.15
2023-03-21T07:49:22.128Z,60.65
2023-03-21T07:51:51.027Z,56.88
2023-03-21T07:54:22.109Z,64.80
2023-03-21T07:56:50.761Z,52.83
2023-03-21T07:59:18.398Z,49.40
2023-03-21T08:01:47.771Z,54.42
2023-03-21T08:04:15.382Z,53.20
2023-03-21T08:06:45.428Z,54.25
2023-03-21T08:09:14.523Z,54.67
2023-03-21T08:11:42.042Z,53.58
2023-03-21T08:14:09.805Z,51.40
2023-03-21T08:16:37.491Z,55.72
2023-03-21T08:19:05.028Z,50.45
2023-03-21T08:21:32.710Z,54.53
2023-03-21T08:24:00.473Z,50.00
2023-03-21T08:26:29.447Z,54.53
2023-03-21T08:31:49.583Z,50.08
2023-03-21T08:34:17.976Z,47.72
2023-03-21T08:36:45.494Z,55.13
2023-03-21T08:39:17.687Z,52.78
2023-03-21T08:41:49.198Z,53.92
2023-03-21T08:47:08.727Z,53.10
2023-03-21T08:49:36.340Z,46.97
2023-03-21T08:52:06.920Z,53.15
2023-03-21T08:54:34.582Z,47.28
2023-03-21T08:57:03.764Z,46.88
2023-03-21T08:59:32.567Z,48.40
2023-03-21T09:02:00.316Z,50.70
2023-03-21T09:04:28.037Z,47.22
2023-03-21T09:06:56.247Z,50.55
2023-03-21T09:09:26.455Z,44.45
2023-03-21T09:11:54.070Z,47.03
2023-03-21T09:14:28.440Z,47.83
2023-03-21T09:16:56.373Z,41.47
2023-03-21T09:19:24.276Z,43.65
2023-03-21T09:21:53.283Z,38.13
2023-03-21T09:24:22.676Z,36.40
2023-03-21T09:26:51.050Z,41.30
2023-03-21T09:29:19.533Z,39.17
2023-03-21T09:31:48.817Z,32.28
2023-03-21T09:34:16.456Z,36.03
2023-03-21T09:36:44.348Z,37.92
2023-03-21T09:39:13.251Z,40.22
2023-03-21T09:42:01.504Z,39.63
2023-03-21T09:47:35.357Z,45.80
2023-03-21T09:50:14.080Z,44.17
2023-03-21T09:52:48.186Z,38.83
2023-03-21T09:55:19.948Z,38.90
2023-03-21T09:57:49.035Z,43.28
2023-03-21T10:00:25.700Z,38.28
2023-03-21T10:03:01.732Z,47.80
2023-03-21T10:05:34.237Z,32.75
2023-03-21T10:08:04.929Z,43.25
2023-03-21T10:10:38.240Z,32.55
2023-03-21T10:13:11.712Z,42.38
2023-03-21T10:15:39.431Z,38.75
2023-03-21T10:18:08.616Z,32.65
2023-03-21T10:20:37.370Z,32.25
2023-03-21T10:23:06.709Z,30.13
2023-03-21T10:25:38.992Z,35.30
2023-03-21T10:28:07.441Z,34.20
2023-03-21T10:30:40.823Z,29.52
2023-03-21T10:33:15.388Z,33.70
2023-03-21T10:35:45.100Z,30.30
2023-03-21T10:38:16.492Z,28.95
2023-03-21T10:40:44.063Z,38.45
2023-03-21T10:43:34.931Z,30.67
2023-03-21T10:46:07.449Z,34.33
2023-03-21T10:48:41.940Z,30.80
2023-03-21T10:51:10.853Z,33.55
2023-03-21T10:53:41.086Z,33.05
2023-03-21T10:56:09.976Z,29.27
2023-03-21T11:08:30.587Z,29.50
2023-03-21T12:40:33.983Z,28.35
2023-03-21T12:43:08.421Z,32.17
2023-03-21T12:48:51.377Z,38.08
2023-03-21T12:54:09.920Z,32.78
2023-03-21T12:56:43.070Z,33.95
2023-03-21T12:59:19.281Z,27.20
2023-03-21T13:01:52.585Z,41.67
2023-03-21T13:04:34.634Z,35.58
2023-03-21T13:10:24.319Z,30.52
2023-03-21T13:12:58.977Z,32.55
2023-03-21T13:15:34.476Z,31.15
2023-03-21T13:18:05.337Z,32.97
2023-03-21T13:20:36.952Z,35.45
2023-03-21T13:23:06.640Z,41.47
2023-03-21T13:25:34.286Z,36.53
2023-03-21T13:28:04.650Z,35.90
2023-03-21T13:30:33.451Z,41.10
2023-03-21T13:33:06.485Z,34.42
2023-03-21T13:35:35.611Z,33.08
2023-03-21T13:38:04.806Z,37.05
2023-03-21T13:40:38.538Z,37.95
2023-03-21T13:43:27.680Z,36.60
2023-03-21T13:45:56.798Z,37.70
2023-03-21T13:48:29.137Z,35.08
2023-03-21T13:51:01.139Z,37.97
2023-03-21T13:53:32.156Z,36.88
2023-03-21T13:56:01.440Z,38.67
2023-03-21T13:58:36.237Z,36.47
2023-03-21T14:01:21.028Z,33.38
2023-03-21T14:03:50.338Z,38.30
2023-03-21T14:06:18.740Z,35.88
2023-03-21T14:08:47.735Z,42.25
2023-03-21T14:11:18.359Z,36.63
2023-03-21T14:13:51.350Z,32.65
2023-03-21T14:16:22.088Z,38.50
2023-03-21T14:18:55.010Z,39.40
2023-03-21T14:21:25.151Z,46.85
2023-03-21T14:24:02.762Z,44.92
2023-03-21T14:26:31.736Z,34.20
2023-03-21T14:28:59.771Z,35.55
2023-03-21T14:31:28.793Z,33.38
2023-03-21T14:33:58.002Z,38.85
2023-03-21T14:36:26.899Z,42.75
2023-03-21T14:38:55.898Z,41.53
2023-03-21T14:41:24.809Z,42.25
2023-03-21T14:44:11.052Z,34.05
2023-03-21T14:46:40.038Z,34.90
2023-03-21T14:49:14.758Z,35.53
2023-03-21T14:51:42.989Z,32.95
2023-03-21T14:54:13.051Z,43.75
2023-03-21T14:56:40.914Z,31.98
2023-03-21T14:59:12.557Z,35.30
2023-03-21T15:01:41.894Z,40.45
2023-03-21T15:04:09.578Z,38.95
2023-03-21T15:06:49.379Z,34.88
2023-03-21T15:09:17.640Z,36.50
2023-03-21T15:11:50.764Z,43.88
2023-03-21T15:14:19.355Z,42.50
2023-03-21T15:16:48.288Z,41.22
2023-03-21T15:19:17.287Z,44.60
2023-03-21T15:21:46.017Z,43.58
2023-03-21T15:24:17.104Z,42.25
2023-03-21T15:26:46.489Z,50.30
2023-03-21T15:29:14.725Z,45.75
2023-03-21T15:31:42.362Z,46.40
2023-03-21T15:34:18.534Z,46.65
2023-03-21T15:36:47.786Z,49.88
2023-03-21T15:39:16.539Z,44.55
2023-03-21T15:41:56.982Z,43.00
2023-03-21T15:44:24.476Z,40.28
2023-03-21T15:46:52.997Z,47.00
2023-03-21T15:49:25.598Z,42.72
2023-03-21T15:51:54.851Z,32.63
2023-03-21T15:54:24.660Z,31.52
2023-03-21T15:56:54.986Z,29.90
2023-03-21T15:59:25.756Z,33.40
2023-03-21T16:01:53.639Z,28.73
2023-03-21T16:04:23.775Z,28.38
2023-03-21T16:06:52.405Z,30.75
2023-03-21T16:09:23.551Z,22.98
2023-03-21T16:11:51.806Z,24.05
2023-03-21T16:14:20.085Z,27.23
2023-03-21T16:16:49.049Z,28.60
2023-03-21T16:19:16.939Z,27.65
2023-03-21T16:21:47.004Z,33.13
2023-03-21T16:24:14.495Z,37.88
2023-03-21T16:26:44.219Z,38.60
2023-03-21T16:29:13.139Z,38.30
2023-03-21T16:31:40.722Z,27.13
2023-03-21T16:34:08.383Z,27.55
2023-03-21T16:36:37.627Z,29.00
2023-03-21T16:39:12.715Z,36.13
2023-03-21T16:41:40.396Z,35.88
2023-03-21T16:44:08.267Z,41.13
2023-03-21T16:46:35.794Z,40.55
2023-03-21T16:49:03.410Z,39.78
2023-03-21T16:51:32.498Z,51.38
2023-03-21T16:54:00.888Z,45.90
2023-03-21T16:56:31.005Z,46.13
2023-03-21T16:58:59.078Z,49.70
2023-03-21T17:01:27.477Z,47.03
2023-03-21T17:03:55.521Z,57.00
2023-03-21T17:06:24.368Z,56.30
2023-03-21T17:08:52.171Z,52.03
2023-03-21T17:11:21.282Z,55.47
2023-03-21T17:13:50.747Z,57.20
2023-03-21T17:16:19.256Z,62.22
2023-03-21T17:18:46.792Z,68.20
2023-03-21T17:21:15.448Z,63.63
2023-03-21T17:23:43.410Z,64.25
2023-03-21T17:26:11.221Z,56.95
2023-03-21T17:28:39.457Z,59.30
2023-03-21T17:31:12.936Z,64.30
2023-03-21T17:33:40.502Z,73.50
2023-03-21T17:36:11.880Z,74.47
2023-03-21T17:38:39.394Z,62.03
2023-03-21T17:41:07.317Z,60.85
2023-03-21T17:43:34.773Z,56.95
2023-03-21T17:46:03.609Z,69.90
2023-03-21T17:48:32.508Z,72.85
2023-03-21T17:51:01.108Z,68.05
2023-03-21T17:53:28.866Z,71.93
2023-03-21T17:55:56.475Z,78.32
2023-03-21T17:58:24.041Z,66.38
2023-03-21T18:00:51.650Z,62.65
2023-03-21T18:03:21.149Z,66.07
2023-03-21T18:05:50.026Z,62.63
2023-03-21T18:08:17.755Z,55.25
2023-03-21T18:10:45.335Z,64.65
2023-03-21T18:13:13.868Z,55.22
2023-03-21T18:15:44.795Z,59.63
2023-03-21T18:18:13.018Z,53.97
2023-03-21T18:20:52.044Z,49.72
2023-03-21T18:23:21.635Z,51.67
2023-03-21T18:25:49.410Z,52.60
2023-03-21T18:28:20.512Z,60.53
2023-03-21T18:31:07.726Z,55.80
2023-03-21T18:33:37.738Z,51.88
2023-03-21T18:36:07.760Z,53.63
2023-03-21T18:38:37.281Z,53.45
2023-03-21T18:41:04.995Z,53.15
2023-03-21T18:46:20.525Z,48.13
2023-03-21T18:48:49.243Z,48.10
2023-03-21T18:51:21.684Z,46.13
2023-03-21T18:53:50.814Z,43.92
2023-03-21T18:57:06.130Z,45.22
2023-03-21T18:59:06.279Z,38.70
2023-03-21T19:01:33.968Z,49.08
2023-03-21T19:04:23.846Z,44.20
2023-03-21T19:06:50.280Z,48.55
2023-03-21T19:09:19.822Z,45.17
2023-03-21T19:11:47.501Z,43.65
2023-03-21T19:14:16.385Z,49.08
2023-03-21T19:17:32.656Z,42.90
2023-03-21T19:19:34.054Z,43.22
2023-03-21T19:22:01.747Z,49.78
2023-03-21T19:24:31.301Z,41.13
2023-03-21T19:26:59.233Z,47.55
2023-03-21T19:29:26.942Z,56.38
2023-03-21T19:31:54.548Z,44.35
2023-03-21T19:34:22.128Z,45.90
2023-03-21T19:36:51.787Z,41.97
2023-03-21T19:39:22.583Z,45.83
2023-03-21T19:42:08.986Z,52.08
2023-03-21T19:45:05.099Z,53.35
2023-03-21T19:47:33.371Z,49.17
2023-03-21T19:50:47.281Z,46.47
2023-03-21T19:53:03.268Z,49.92
2023-03-21T19:55:30.901Z,46.40
2023-03-21T19:58:14.631Z,48.25
2023-03-21T20:00:42.777Z,47.10
2023-03-21T20:03:10.937Z,47.13
2023-03-21T20:05:40.886Z,49.42
2023-03-21T20:08:10.906Z,50.97
2023-03-21T20:10:39.156Z,44.03
2023-03-21T20:13:11.272Z,48.28
2023-03-21T20:15:46.020Z,42.47
2023-03-21T20:18:15.897Z,41.55
2023-03-21T20:20:43.381Z,42.17
2023-03-21T20:23:11.663Z,39.28
2023-03-21T20:25:42.316Z,35.03
2023-03-21T20:28:25.054Z,43.78
2023-03-21T20:33:34.562Z,38.67
2023-03-21T20:36:38.197Z,37.70
2023-03-21T20:38:54.171Z,34.08
2023-03-21T20:41:21.731Z,37.30
2023-03-21T20:46:38.160Z,40.65
2023-03-21T20:49:07.299Z,35.40
2023-03-21T20:54:23.622Z,31.02
2023-03-21T20:56:51.119Z,33.05
2023-03-21T20:59:26.523Z,42.13
2023-03-21T21:01:55.311Z,40.30
2023-03-21T21:04:25.588Z,40.35
2023-03-21T21:07:02.244Z,35.90
2023-03-21T21:09:31.020Z,38.78
2023-03-21T21:12:07.555Z,40.35
2023-03-21T21:14:37.648Z,56.42
2023-03-21T21:17:24.471Z,53.45
2023-03-21T21:19:55.503Z,46.00
2023-03-21T21:22:25.942Z,46.28
2023-03-21T21:24:53.470Z,47.60
2023-03-21T21:27:21.170Z,45.20
2023-03-21T21:29:52.655Z,41.75
2023-03-21T21:32:20.878Z,39.03
2023-03-21T21:34:49.049Z,38.78
2023-03-21T21:37:16.583Z,34.72
2023-03-21T21:39:44.149Z,40.35
2023-03-21T21:42:14.769Z,35.10
2023-03-21T21:44:44.894Z,40.80
2023-03-21T21:47:13.872Z,39.83
2023-03-21T21:49:42.299Z,43.30
2023-03-21T21:52:13.509Z,36.42
2023-03-21T21:54:45.545Z,42.72
2023-03-21T21:57:13.608Z,41.70
2023-03-21T21:59:41.883Z,39.95
2023-03-21T22:02:10.346Z,33.72
2023-03-21T22:04:39.704Z,37.28
2023-03-21T22:07:14.141Z,40.80
2023-03-21T22:09:41.712Z,32.42
2023-03-21T22:12:09.188Z,32.85
2023-03-21T22:14:36.763Z,38.15
2023-03-21T22:17:04.480Z,34.58
2023-03-21T22:19:32.412Z,31.98
2023-03-21T22:22:01.292Z,34.30
2023-03-21T22:24:28.858Z,35.33
2023-03-21T22:26:58.125Z,39.13
2023-03-21T22:29:26.368Z,37.95
2023-03-21T22:31:54.622Z,36.20
2023-03-21T22:34:22.761Z,31.67
2023-03-21T22:36:51.098Z,37.15
2023-03-21T22:39:20.340Z,38.83
2023-03-21T22:41:47.802Z,35.83
2023-03-21T22:44:15.513Z,35.15
2023-03-21T22:46:51.740Z,37.83
2023-03-21T22:49:21.186Z,43.50
2023-03-21T22:51:49.130Z,39.15
2023-03-21T22:54:16.652Z,40.55
2023-03-21T22:56:45.541Z,37.55
2023-03-21T22:59:16.833Z,40.03
2023-03-21T23:01:44.633Z,52.00
2023-03-21T23:04:12.216Z,39.38
2023-03-21T23:06:40.065Z,41.47
2023-03-21T23:09:10.342Z,35.88
2023-03-21T23:11:38.326Z,41.47
2023-03-21T23:14:08.873Z,39.05
2023-03-21T23:16:38.340Z,41.83
2023-03-21T23:19:06.260Z,35.65
2023-03-21T23:21:34.600Z,42.37
2023-03-21T23:24:02.347Z,41.10
2023-03-21T23:26:30.238Z,33.92
2023-03-21T23:28:58.068Z,34.87
2023-03-21T23:31:27.831Z,33.00
2023-03-21T23:33:56.032Z,34.53
2023-03-21T23:36:23.697Z,35.47
2023-03-21T23:38:51.573Z,28.40
2023-03-21T23:41:20.075Z,31.85
2023-03-21T23:43:48.330Z,32.88
2023-03-21T23:46:16.553Z,30.20
2023-03-21T23:48:46.034Z,32.67
2023-03-21T23:51:14.465Z,35.88
2023-03-21T23:53:42.096Z,31.23
2023-03-21T23:56:13.416Z,31.77
2023-03-21T23:58:41.043Z,33.35
